Charlottesville Albemarle Airport
KCHO : now visible

Airfield :











YOU CAN JOIN US ON...

 
LOGIN :

Register | Disclaimer

   EN    FR    IT 

 









Legend :    VFR   Marginal VFR   IFR   Intensive IFR   Very Intensive IFR
Visi :
Ceiling :
>= 8 km
>= 3000ft
5 to 8 km
1000 to 3000 ft
1500m to 5 km
500 to 1000 ft
800 to 1500m
200 to 500 ft
< 800m
< 200 ft
Symbols :   Thunderstorms  Fog  Heavy snow  Heavy precipitations  Wind > 20 kt






- Airport Elevation : 639 ft
- IATA code : CHO


KCHO - Charlottesville Albemarle

CURRENT METAR :
  • 280853Z AUTO 20008KT 1/2SM FG VV002 16/14 A3007 RMK AO2 SLP179 T01610144 56011

EXPIRED METARs :
  • 280753Z AUTO 20004KT 1/2SM FG VV002 16/15 A3008 RMK AO2 SLP182 T01610150
  • 280741Z AUTO 20004KT 3/4SM BR VV002 16/15 A3008 RMK AO2 T01610150
  • 280727Z AUTO 19005KT 1 3/4SM BR OVC002 16/15 A3008 RMK AO2 T01610150
  • 280653Z AUTO 20005KT 5SM BR OVC003 16/14 A3010 RMK AO2 SLP187 T01610144

TAF KCHO
Valid from the 28 at 06:00 until the 29 at 06:00 UTC


280530Z 2806/2906 20004KT 5SM BR BKN003 OVC008
FM280800 20004KT 3/4SM -DZ BR BKN002 OVC008
FM281300 21004KT P6SM SCT015 BKN050
FM281600 20008KT P6SM BKN050 BKN130
FM290300 18004KT 5SM -RA BR SCT008 BKN015 OVC050
KZDC FIR / North America



MET'MAP, your aeronautical weather chart ! - Copyright ORBIFLY December 2007 - Disclaimer

ORBIFLY MET'MAP TEAM :

Programming & Development : Alexandra Zaïnal
Concept & original design : Baudouin d'Aumeries
Assistance for programming : Marc-Olivier Méhu
Technical & hardware support : Manuel Goepfert

Contact : metmap@orbifly.com




SOURCES & CREDITS :

   NOAA       Earth
Advisory